Abbott, Texas
Current Conditions -  °F | °C
As of 5:15 AM on Friday 28 Nov 2014 (Local Time) from KINJ Reporting Station
Clear Clear  
Wind Chill: 41°   Ceiling: Unl
Heat Index: 45°   Visibility: 10mi
Dew Point: 31°   Wind: 8mph
Humidity: 59%   Direction: 170°S
Pressure: 30.28"   Gusts: NA
Location:  31.88°N, 97.07°W
Report Text: KINJ 281115Z AUTO 17007KT 10SM CLR 07/00 A3028 RMK AO2 T00721003
Loading
Personal Weather Stations






























Interactive Weather Map New forecast layout! Learn more

10-Day Weather Forecast

Advertisements
Track Severe Weather on mobile